Time;durP1;ratioP1;P1;durP2;ratioP2;P2;SDS_P1;SDS_P2;PMS_P1;PMS_P2;Temp;Humidity;BMP_temperature;BMP_pressure;BME280_temperature;BME280_humidity;BME280_pressure;Samples;Min_cycle;Max_cycle;Signal;HPM_P1;HPM_P2
2021/03/02 00:01:51;;;;;;;200.30;25.00;;;;;;;;;;4990947;28;20057;-60
2021/03/02 00:04:20;;;;;;;181.50;26.23;;;;;;;;;;4994244;28;20038;-59
2021/03/02 00:06:46;;;;;;;207.32;24.55;;;;;;;;;;4983713;28;20054;-60
2021/03/02 00:09:12;;;;;;;192.13;24.08;;;;;;;;;;4990991;28;20037;-60
2021/03/02 00:11:38;;;;;;;180.27;25.13;;;;;;;;;;4995712;28;20052;-61
2021/03/02 00:14:04;;;;;;;196.45;25.70;;;;;;;;;;4994092;28;20046;-60
2021/03/02 00:16:32;;;;;;;236.73;25.88;;;;;;;;;;4993711;28;20060;-61
2021/03/02 00:19:09;;;;;;;194.60;24.67;;;;;;;;;;4996481;28;20121;-60
2021/03/02 00:21:39;;;;;;;220.18;26.67;;;;;;;;;;4992882;28;20390;-60
2021/03/02 00:24:10;;;;;;;160.82;23.05;;;;;;;;;;4990139;28;20486;-60
2021/03/02 00:26:37;;;;;;;202.52;26.52;;;;;;;;;;4990882;28;20049;-60
2021/03/02 00:29:05;;;;;;;205.48;26.98;;;;;;;;;;4991650;28;20038;-60
2021/03/02 00:31:35;;;;;;;203.60;25.77;;;;;;;;;;4991442;28;20046;-60
2021/03/02 00:34:01;;;;;;;203.15;25.92;;;;;;;;;;4991302;28;20092;-60
2021/03/02 00:36:29;;;;;;;212.45;24.20;;;;;;;;;;4988780;28;20022;-60
2021/03/02 00:38:55;;;;;;;208.15;26.40;;;;;;;;;;4995205;28;20041;-60
2021/03/02 00:41:21;;;;;;;201.48;26.40;;;;;;;;;;4994455;28;20038;-60
2021/03/02 00:43:49;;;;;;;153.40;24.17;;;;;;;;;;4989189;28;20120;-60
2021/03/02 00:46:15;;;;;;;165.85;25.00;;;;;;;;;;4988340;28;20038;-60
2021/03/02 00:48:41;;;;;;;203.45;27.60;;;;;;;;;;4990205;28;20038;-60
2021/03/02 00:51:07;;;;;;;201.32;26.80;;;;;;;;;;4995715;28;20034;-60
2021/03/02 00:53:33;;;;;;;205.10;27.25;;;;;;;;;;4994659;28;20038;-60
2021/03/02 00:55:59;;;;;;;179.38;25.40;;;;;;;;;;4990911;28;20038;-60
2021/03/02 00:58:25;;;;;;;189.93;25.75;;;;;;;;;;4993423;28;20026;-61
2021/03/02 01:00:51;;;;;;;157.73;24.02;;;;;;;;;;4990978;28;20034;-60
2021/03/02 01:03:17;;;;;;;185.90;24.80;;;;;;;;;;4986507;28;20037;-60
2021/03/02 01:05:43;;;;;;;145.57;23.58;;;;;;;;;;4984671;28;20038;-60
2021/03/02 01:08:09;;;;;;;143.35;24.55;;;;;;;;;;4987101;28;20037;-60
2021/03/02 01:10:35;;;;;;;155.02;24.73;;;;;;;;;;4988716;28;20046;-60
2021/03/02 01:13:01;;;;;;;184.25;23.42;;;;;;;;;;4993642;28;20478;-60
2021/03/02 01:15:29;;;;;;;208.45;25.05;;;;;;;;;;4990986;28;20133;-60
2021/03/02 01:17:57;;;;;;;164.25;25.90;;;;;;;;;;4987403;28;20053;-60
2021/03/02 01:20:23;;;;;;;184.85;25.75;;;;;;;;;;4993922;28;20084;-60
2021/03/02 01:22:52;;;;;;;196.82;25.58;;;;;;;;;;4992250;28;20471;-60
2021/03/02 01:25:17;;;;;;;183.85;25.17;;;;;;;;;;4996483;28;20033;-60
2021/03/02 01:27:43;;;;;;;177.63;23.77;;;;;;;;;;4992722;28;20034;-60
2021/03/02 01:30:11;;;;;;;177.30;22.63;;;;;;;;;;4993077;28;20041;-60
2021/03/02 01:32:39;;;;;;;199.18;24.50;;;;;;;;;;4984682;28;20035;-60
2021/03/02 01:35:07;;;;;;;244.75;24.10;;;;;;;;;;4995585;28;20048;-60
2021/03/02 01:37:33;;;;;;;200.68;23.70;;;;;;;;;;4990536;28;20034;-60
2021/03/02 01:40:01;;;;;;;173.85;25.45;;;;;;;;;;4985651;28;20561;-60
2021/03/02 01:42:27;;;;;;;163.18;24.60;;;;;;;;;;4994595;28;20029;-60
2021/03/02 01:44:53;;;;;;;226.45;25.75;;;;;;;;;;5008253;28;20034;-60
2021/03/02 01:47:19;;;;;;;193.75;24.10;;;;;;;;;;4995899;28;20034;-60
2021/03/02 01:49:47;;;;;;;176.63;23.40;;;;;;;;;;4992439;28;20041;-60
2021/03/02 01:52:13;;;;;;;180.00;24.67;;;;;;;;;;4992280;28;20038;-60
2021/03/02 01:54:39;;;;;;;136.30;26.23;;;;;;;;;;4993995;28;20057;-60
2021/03/02 01:57:08;;;;;;;209.85;23.75;;;;;;;;;;4994903;28;20042;-60
2021/03/02 01:59:36;;;;;;;216.63;23.77;;;;;;;;;;4994628;28;20048;-60
2021/03/02 02:02:03;;;;;;;167.77;23.10;;;;;;;;;;4996172;28;20049;-60
2021/03/02 02:04:42;;;;;;;237.02;24.27;;;;;;;;;;4986356;28;20052;-60
2021/03/02 02:07:14;;;;;;;149.82;24.27;;;;;;;;;;4993004;28;20096;-60
2021/03/02 02:09:46;;;;;;;189.77;24.52;;;;;;;;;;4993490;28;20117;-60
2021/03/02 02:12:42;;;;;;;154.30;24.73;;;;;;;;;;4992850;28;20052;-60
2021/03/02 02:15:09;;;;;;;162.23;23.02;;;;;;;;;;4988681;28;20462;-60
2021/03/02 02:17:39;;;;;;;175.88;25.50;;;;;;;;;;4988086;28;20038;-60
2021/03/02 02:20:09;;;;;;;141.95;23.60;;;;;;;;;;4989126;28;20042;-60
2021/03/02 02:22:54;;;;;;;195.43;24.58;;;;;;;;;;4990659;28;20134;-60
2021/03/02 02:25:28;;;;;;;185.65;23.55;;;;;;;;;;4992935;28;20040;-60
2021/03/02 02:27:56;;;;;;;179.20;24.20;;;;;;;;;;4984341;28;20038;-60
2021/03/02 02:30:23;;;;;;;185.18;24.52;;;;;;;;;;4995849;28;20026;-60
2021/03/02 02:32:50;;;;;;;169.18;23.02;;;;;;;;;;4991383;28;20053;-60
2021/03/02 02:35:18;;;;;;;160.80;22.80;;;;;;;;;;4997239;28;20030;-60
2021/03/02 02:37:44;;;;;;;229.60;24.70;;;;;;;;;;4992449;28;20149;-60
2021/03/02 02:40:13;;;;;;;168.13;23.63;;;;;;;;;;4997019;28;20132;-60
2021/03/02 02:42:40;;;;;;;158.20;23.35;;;;;;;;;;4989640;28;20517;-60
2021/03/02 02:45:06;;;;;;;224.32;25.58;;;;;;;;;;5004698;28;20699;-60
2021/03/02 02:47:33;;;;;;;178.90;25.27;;;;;;;;;;4993924;28;20544;-60
2021/03/02 02:49:59;;;;;;;173.85;24.98;;;;;;;;;;4994234;28;20168;-60
2021/03/02 02:52:25;;;;;;;165.18;24.90;;;;;;;;;;5007002;28;20424;-62
2021/03/02 02:54:53;;;;;;;191.45;26.52;;;;;;;;;;4994857;28;20054;-60
2021/03/02 02:57:20;;;;;;;199.70;25.27;;;;;;;;;;4994654;28;20104;-60
2021/03/02 02:59:48;;;;;;;194.80;25.15;;;;;;;;;;4998608;28;20042;-61
2021/03/02 03:02:20;;;;;;;180.32;24.52;;;;;;;;;;4992322;28;20508;-60
2021/03/02 03:05:09;;;;;;;190.48;26.58;;;;;;;;;;4989422;28;20046;-60
2021/03/02 03:07:39;;;;;;;201.48;25.25;;;;;;;;;;4993904;28;20034;-60
2021/03/02 03:10:06;;;;;;;171.85;23.52;;;;;;;;;;4992288;28;20582;-60
2021/03/02 03:12:37;;;;;;;187.43;23.90;;;;;;;;;;4992964;28;20502;-60
2021/03/02 03:15:09;;;;;;;153.32;24.33;;;;;;;;;;4989593;28;20510;-60
2021/03/02 03:17:37;;;;;;;130.13;22.23;;;;;;;;;;4996270;28;20112;-60
2021/03/02 03:20:05;;;;;;;155.02;22.80;;;;;;;;;;4997429;28;20038;-60
2021/03/02 03:22:31;;;;;;;146.43;24.13;;;;;;;;;;4992670;28;20026;-60
2021/03/02 03:24:57;;;;;;;147.88;23.25;;;;;;;;;;4997831;28;20041;-60
2021/03/02 03:27:23;;;;;;;159.75;23.45;;;;;;;;;;4996576;28;20049;-60
2021/03/02 03:29:52;;;;;;;168.40;23.80;;;;;;;;;;4992869;28;20491;-60
2021/03/02 03:32:19;;;;;;;168.73;24.50;;;;;;;;;;4993906;28;20065;-60
2021/03/02 03:34:45;;;;;;;171.40;22.65;;;;;;;;;;4994840;28;20475;-60
2021/03/02 03:37:11;;;;;;;165.52;24.42;;;;;;;;;;4992168;28;20043;-60
2021/03/02 03:39:37;;;;;;;170.65;22.45;;;;;;;;;;4994294;28;20073;-60
2021/03/02 03:42:04;;;;;;;218.35;25.23;;;;;;;;;;4997539;28;20030;-60
2021/03/02 03:44:30;;;;;;;183.02;24.77;;;;;;;;;;4988666;28;20095;-60
2021/03/02 03:46:56;;;;;;;176.88;23.30;;;;;;;;;;4986274;28;20034;-60
2021/03/02 03:49:22;;;;;;;194.88;24.85;;;;;;;;;;4987280;28;20156;-59
2021/03/02 03:51:48;;;;;;;182.02;23.83;;;;;;;;;;4989962;28;20042;-60
2021/03/02 03:54:15;;;;;;;141.20;24.33;;;;;;;;;;4995366;28;20544;-60
2021/03/02 03:56:44;;;;;;;201.65;25.17;;;;;;;;;;4993835;28;20042;-59
2021/03/02 03:59:12;;;;;;;136.93;24.02;;;;;;;;;;4997787;28;20026;-59
2021/03/02 04:01:38;;;;;;;163.20;25.23;;;;;;;;;;4996789;28;20038;-59
2021/03/02 04:28:07;;;;;;;193.10;25.35;;;;;;;;;;5020413;28;20052;-61
2021/03/02 04:30:33;;;;;;;221.48;25.15;;;;;;;;;;5017852;28;20746;-60
2021/03/02 04:33:00;;;;;;;198.98;25.30;;;;;;;;;;5021947;28;20033;-60
2021/03/02 04:35:26;;;;;;;176.25;25.10;;;;;;;;;;5019024;28;20025;-58
2021/03/02 04:37:52;;;;;;;224.30;25.92;;;;;;;;;;5019861;28;20455;-60
2021/03/02 04:40:18;;;;;;;268.33;26.90;;;;;;;;;;5016091;28;20037;-59
2021/03/02 04:42:44;;;;;;;216.30;26.42;;;;;;;;;;5017178;28;20033;-60
2021/03/02 04:45:11;;;;;;;211.35;25.15;;;;;;;;;;5019443;28;20107;-59
2021/03/02 04:47:38;;;;;;;186.15;24.73;;;;;;;;;;5020166;28;20538;-59
2021/03/02 04:50:04;;;;;;;197.60;26.02;;;;;;;;;;5018726;28;20026;-60
2021/03/02 04:52:33;;;;;;;207.95;24.75;;;;;;;;;;5019473;28;20034;-60
2021/03/02 04:54:59;;;;;;;172.77;24.40;;;;;;;;;;5018238;28;20033;-60
2021/03/02 04:57:27;;;;;;;207.18;25.58;;;;;;;;;;5018862;28;20033;-60
2021/03/02 05:00:18;;;;;;;189.40;23.40;;;;;;;;;;5017979;28;20044;-60
2021/03/02 05:03:09;;;;;;;182.90;24.10;;;;;;;;;;5071034;28;20025;-60
2021/03/02 05:06:00;;;;;;;203.35;25.25;;;;;;;;;;5082407;28;20039;-59
2021/03/02 05:08:53;;;;;;;203.93;24.42;;;;;;;;;;5077271;28;20056;-60
2021/03/02 05:11:45;;;;;;;202.15;23.38;;;;;;;;;;5078266;28;20031;-60
2021/03/02 05:14:36;;;;;;;200.25;25.98;;;;;;;;;;5077230;28;20035;-61
2021/03/02 05:17:27;;;;;;;200.60;26.52;;;;;;;;;;5082108;28;20102;-60
2021/03/02 05:20:18;;;;;;;220.23;26.27;;;;;;;;;;5078747;28;20059;-60
2021/03/02 05:23:09;;;;;;;173.95;24.45;;;;;;;;;;5068505;28;20047;-60
2021/03/02 05:26:00;;;;;;;196.25;25.63;;;;;;;;;;5068023;28;20829;-60
2021/03/02 05:28:51;;;;;;;236.80;27.40;;;;;;;;;;5078039;28;20089;-60
2021/03/02 05:31:42;;;;;;;204.15;25.08;;;;;;;;;;5070549;28;20032;-60
2021/03/02 05:34:33;;;;;;;214.65;26.58;;;;;;;;;;5066454;28;20110;-60
2021/03/02 05:37:24;;;;;;;214.43;28.05;;;;;;;;;;5074334;28;20085;-60
2021/03/02 05:40:15;;;;;;;192.48;25.48;;;;;;;;;;5074845;28;20059;-60
2021/03/02 05:43:06;;;;;;;185.95;25.30;;;;;;;;;;5051946;28;20343;-60
2021/03/02 05:45:57;;;;;;;192.00;24.75;;;;;;;;;;5072849;28;20036;-60
2021/03/02 05:48:51;;;;;;;210.20;27.67;;;;;;;;;;5064709;28;20528;-60
2021/03/02 05:51:42;;;;;;;237.27;27.80;;;;;;;;;;5073851;28;20034;-60
2021/03/02 05:54:33;;;;;;;247.80;28.15;;;;;;;;;;5075141;28;20035;-60
2021/03/02 05:57:24;;;;;;;171.88;26.67;;;;;;;;;;5073669;28;20035;-60
2021/03/02 06:00:15;;;;;;;187.77;27.30;;;;;;;;;;5058014;28;20035;-60
2021/03/02 06:03:06;;;;;;;215.25;27.65;;;;;;;;;;5070969;28;20034;-60
2021/03/02 06:05:57;;;;;;;233.55;29.88;;;;;;;;;;5080199;28;20023;-60
2021/03/02 06:08:48;;;;;;;222.82;28.17;;;;;;;;;;5076665;28;20035;-60
2021/03/02 06:11:39;;;;;;;228.70;29.10;;;;;;;;;;5072328;28;20024;-60
2021/03/02 06:14:33;;;;;;;228.32;29.95;;;;;;;;;;5078621;28;20036;-60
2021/03/02 06:17:25;;;;;;;216.15;28.63;;;;;;;;;;5073296;28;20055;-60
2021/03/02 06:20:16;;;;;;;187.15;27.08;;;;;;;;;;5077496;28;20128;-60
2021/03/02 06:23:07;;;;;;;228.63;30.45;;;;;;;;;;5071397;28;20035;-60
2021/03/02 06:25:58;;;;;;;211.63;29.08;;;;;;;;;;5077591;28;20320;-60
2021/03/02 06:28:49;;;;;;;268.98;31.55;;;;;;;;;;5081144;28;20028;-60
2021/03/02 06:31:40;;;;;;;231.35;30.70;;;;;;;;;;5075002;28;20051;-60
2021/03/02 06:34:31;;;;;;;240.05;29.35;;;;;;;;;;5073229;28;20032;-60
2021/03/02 06:37:22;;;;;;;208.65;28.58;;;;;;;;;;5078025;28;20028;-60
2021/03/02 06:40:13;;;;;;;186.10;28.50;;;;;;;;;;5078400;28;20109;-62
2021/03/02 06:43:04;;;;;;;255.70;31.15;;;;;;;;;;5072792;28;20032;-62
2021/03/02 06:45:55;;;;;;;242.30;29.10;;;;;;;;;;5069721;28;20071;-60
2021/03/02 06:48:46;;;;;;;259.65;32.53;;;;;;;;;;5072046;28;20383;-60
2021/03/02 06:51:37;;;;;;;215.35;29.75;;;;;;;;;;5069380;28;20493;-60
2021/03/02 06:54:28;;;;;;;186.55;27.33;;;;;;;;;;5077834;28;20467;-61
2021/03/02 06:57:19;;;;;;;197.10;29.23;;;;;;;;;;5072873;28;20085;-60
2021/03/02 07:00:10;;;;;;;216.70;29.17;;;;;;;;;;5046572;28;20146;-59
2021/03/02 07:03:01;;;;;;;225.93;28.33;;;;;;;;;;5063956;28;20130;-60
2021/03/02 07:05:52;;;;;;;182.23;28.67;;;;;;;;;;5051014;28;20251;-60
2021/03/02 07:08:43;;;;;;;205.60;28.65;;;;;;;;;;5058735;28;20569;-60
2021/03/02 07:11:34;;;;;;;260.00;30.60;;;;;;;;;;5052767;28;20028;-60
2021/03/02 07:14:27;;;;;;;184.70;29.20;;;;;;;;;;5048315;28;20028;-59
2021/03/02 07:17:19;;;;;;;221.27;30.65;;;;;;;;;;5055532;28;20047;-60
2021/03/02 07:19:47;;;;;;;247.77;34.22;;;;;;;;;;5063000;28;20328;-59
2021/03/02 07:22:14;;;;;;;242.80;36.55;;;;;;;;;;5057836;28;20036;-59
2021/03/02 07:24:40;;;;;;;198.68;36.60;;;;;;;;;;5061879;28;20888;-60
2021/03/02 07:27:09;;;;;;;243.60;40.30;;;;;;;;;;5045493;28;20029;-60
2021/03/02 07:29:35;;;;;;;296.35;39.33;;;;;;;;;;5053091;28;20079;-60
2021/03/02 07:32:02;;;;;;;235.90;36.95;;;;;;;;;;5052272;28;20064;-60
2021/03/02 07:34:28;;;;;;;226.90;37.55;;;;;;;;;;5064256;28;22395;-60
2021/03/02 07:36:57;;;;;;;240.90;36.03;;;;;;;;;;5055960;28;20407;-60
2021/03/02 07:39:29;;;;;;;206.65;35.75;;;;;;;;;;5080411;28;20042;-60
2021/03/02 07:41:56;;;;;;;217.63;35.97;;;;;;;;;;5080562;28;20043;-60
2021/03/02 07:44:23;;;;;;;220.55;37.33;;;;;;;;;;5047783;28;20032;-61
2021/03/02 07:46:52;;;;;;;249.63;37.15;;;;;;;;;;5080822;28;20039;-60
2021/03/02 07:49:24;;;;;;;225.02;36.78;;;;;;;;;;5078209;28;20074;-62
2021/03/02 07:51:59;;;;;;;235.45;37.35;;;;;;;;;;5050203;28;20629;-61
2021/03/02 07:54:25;;;;;;;235.38;37.63;;;;;;;;;;5080002;28;20024;-58
2021/03/02 07:57:12;;;;;;;210.65;37.40;;;;;;;;;;5072301;28;20043;-60
2021/03/02 07:59:43;;;;;;;178.23;36.25;;;;;;;;;;5064803;28;20263;-64
2021/03/02 08:02:16;;;;;;;195.38;36.53;;;;;;;;;;5068201;28;20047;-60
2021/03/02 08:04:42;;;;;;;191.30;37.17;;;;;;;;;;5078119;28;20028;-60
2021/03/02 08:07:29;;;;;;;193.48;36.92;;;;;;;;;;5064598;28;20775;-59
2021/03/02 08:09:56;;;;;;;187.07;34.17;;;;;;;;;;5069227;28;20046;-60
2021/03/02 08:12:32;;;;;;;212.30;35.28;;;;;;;;;;5071339;28;20085;-59
2021/03/02 08:14:59;;;;;;;181.63;36.55;;;;;;;;;;5053548;28;20032;-59
2021/03/02 08:17:26;;;;;;;184.75;36.08;;;;;;;;;;5052727;28;20507;-59
2021/03/02 08:20:02;;;;;;;197.85;38.33;;;;;;;;;;5070647;28;20061;-60
2021/03/02 08:22:32;;;;;;;203.52;39.00;;;;;;;;;;5077514;28;20046;-59
2021/03/02 08:24:59;;;;;;;155.85;36.78;;;;;;;;;;5071596;28;20204;-59
2021/03/02 08:27:37;;;;;;;159.98;37.92;;;;;;;;;;5076016;28;20032;-60
2021/03/02 08:30:05;;;;;;;209.98;38.90;;;;;;;;;;5076955;28;20506;-60
2021/03/02 08:32:31;;;;;;;157.82;37.13;;;;;;;;;;5077166;28;20486;-61
2021/03/02 08:35:02;;;;;;;161.60;37.22;;;;;;;;;;5075117;28;20380;-60
2021/03/02 08:37:44;;;;;;;142.52;35.22;;;;;;;;;;5079849;28;20081;-60
2021/03/02 08:40:11;;;;;;;151.27;35.13;;;;;;;;;;5077029;28;20028;-59
2021/03/02 08:42:37;;;;;;;131.15;35.90;;;;;;;;;;5062503;28;20131;-60
2021/03/02 08:45:06;;;;;;;124.75;36.30;;;;;;;;;;5074012;28;20054;-59
2021/03/02 08:47:35;;;;;;;154.55;37.38;;;;;;;;;;5077725;28;20183;-60
2021/03/02 08:50:01;;;;;;;130.25;36.78;;;;;;;;;;5085332;28;20078;-60
2021/03/02 08:52:40;;;;;;;145.13;40.72;;;;;;;;;;5084120;28;20094;-59
2021/03/02 08:55:07;;;;;;;145.15;39.35;;;;;;;;;;5085361;28;20036;-59
2021/03/02 08:57:46;;;;;;;114.53;36.85;;;;;;;;;;5083860;28;20075;-60
2021/03/02 09:00:15;;;;;;;113.93;36.15;;;;;;;;;;5087053;28;20058;-60
2021/03/02 09:02:44;;;;;;;112.22;36.75;;;;;;;;;;5079412;28;20109;-60
2021/03/02 09:05:22;;;;;;;105.93;35.22;;;;;;;;;;5082397;28;20040;-60
2021/03/02 09:08:07;;;;;;;108.85;36.00;;;;;;;;;;5084101;28;20032;-60
2021/03/02 09:10:33;;;;;;;114.10;36.05;;;;;;;;;;5075056;28;20115;-60
2021/03/02 09:12:59;;;;;;;111.53;37.42;;;;;;;;;;5075481;28;20117;-60
2021/03/02 09:15:36;;;;;;;93.70;34.25;;;;;;;;;;5067761;28;20391;-60
2021/03/02 09:18:15;;;;;;;92.10;35.25;;;;;;;;;;5075848;28;20146;-60
2021/03/02 09:20:48;;;;;;;81.97;32.58;;;;;;;;;;5070966;28;20032;-60
2021/03/02 09:23:14;;;;;;;87.32;34.55;;;;;;;;;;5074207;28;20403;-60
2021/03/02 09:25:40;;;;;;;75.28;33.90;;;;;;;;;;5064986;28;20044;-60
2021/03/02 09:28:14;;;;;;;87.25;34.85;;;;;;;;;;5077735;28;20063;-60
2021/03/02 09:30:41;;;;;;;84.05;36.20;;;;;;;;;;5074873;28;20127;-60
2021/03/02 09:33:07;;;;;;;81.32;34.10;;;;;;;;;;5075016;28;20127;-60
2021/03/02 09:35:33;;;;;;;76.68;33.47;;;;;;;;;;5071337;28;20043;-61
2021/03/02 09:37:58;;;;;;;72.85;33.83;;;;;;;;;;5071182;28;20522;-60
2021/03/02 09:40:24;;;;;;;63.90;31.80;;;;;;;;;;5078699;28;20036;-59
2021/03/02 09:42:57;;;;;;;63.47;30.95;;;;;;;;;;5078927;28;20054;-59
2021/03/02 09:45:22;;;;;;;66.60;31.52;;;16.20;44.00;;;;;;5079426;28;20024;-60
2021/03/02 09:47:58;;;;;;;59.70;31.08;;;13.10;59.30;;;;;;5077852;28;20047;-60
2021/03/02 09:50:35;;;;;;;55.83;30.15;;;13.40;58.30;;;;;;5075276;28;20028;-60
2021/03/02 09:53:13;;;;;;;57.67;30.33;;;13.70;57.80;;;;;;5053299;28;20037;-60
2021/03/02 09:55:39;;;;;;;52.20;27.52;;;14.20;58.80;;;;;;5052008;28;20033;-60
2021/03/02 10:00:47;;;;;;;45.13;24.58;;;16.60;56.20;;;;;;5056020;28;20071;-61
2021/03/02 10:03:13;;;;;;;43.20;24.30;;;18.00;53.60;;;;;;5058512;28;20690;-60
2021/03/02 10:05:52;;;;;;;43.17;24.33;;;19.40;50.20;;;;;;5050833;28;20050;-60
2021/03/02 10:08:28;;;;;;;40.78;24.17;;;20.40;47.60;;;;;;5070106;28;20067;-61
2021/03/02 10:11:01;;;;;;;38.67;22.38;;;21.50;44.60;;;;;;5072720;28;20402;-61
2021/03/02 10:13:29;;;;;;;36.45;21.80;;;22.60;42.00;;;;;;5070394;28;20032;-61
2021/03/02 10:16:14;;;;;;;34.03;21.52;;;23.50;39.70;;;;;;5060394;28;20032;-60
2021/03/02 10:18:48;;;;;;;32.08;20.15;;;24.30;37.60;;;;;;5048959;28;20165;-61
2021/03/02 10:21:14;;;;;;;28.58;18.23;;;25.10;35.80;;;;;;5062499;28;20166;-61
2021/03/02 10:23:44;;;;;;;28.95;18.30;;;25.80;34.40;;;;;;5064409;28;20036;-61
2021/03/02 10:26:11;;;;;;;37.30;19.02;;;26.40;32.80;;;;;;5064591;28;20040;-61
2021/03/02 10:28:37;;;;;;;29.02;17.77;;;27.00;31.60;;;;;;5079192;28;20491;-61
2021/03/02 10:31:04;;;;;;;34.58;17.13;;;27.50;30.50;;;;;;5075259;28;20096;-61
2021/03/02 10:33:30;;;;;;;29.50;17.80;;;27.80;29.40;;;;;;5078880;28;20035;-62
2021/03/02 10:35:56;;;;;;;29.45;18.08;;;28.10;29.30;;;;;;5076913;28;20033;-61
2021/03/02 10:38:24;;;;;;;30.80;18.27;;;28.30;28.70;;;;;;5071938;28;20033;-61
2021/03/02 10:40:50;;;;;;;29.48;18.95;;;28.60;27.80;;;;;;5076548;28;20048;-61
2021/03/02 10:43:15;;;;;;;28.88;19.08;;;28.80;27.50;;;;;;5081556;28;20046;-61
2021/03/02 10:45:41;;;;;;;34.20;19.42;;;29.00;27.50;;;;;;5072728;28;20128;-62
2021/03/02 10:48:07;;;;;;;31.13;20.67;;;29.30;26.50;;;;;;5076655;28;20028;-61
2021/03/02 10:50:35;;;;;;;29.70;19.58;;;29.50;26.30;;;;;;5070684;28;20048;-61
2021/03/02 10:53:00;;;;;;;28.73;19.38;;;29.50;26.10;;;;;;5064676;28;20059;-61
2021/03/02 10:55:35;;;;;;;31.52;20.75;;;29.30;25.90;;;;;;5060573;28;20048;-63
2021/03/02 10:58:01;;;;;;;31.08;20.00;;;29.20;26.10;;;;;;5084830;28;20089;-61
2021/03/02 11:00:27;;;;;;;34.70;20.98;;;29.20;26.10;;;;;;5081708;28;20040;-62
2021/03/02 11:03:03;;;;;;;34.05;19.15;;;29.30;25.90;;;;;;5080709;28;20479;-63
2021/03/02 11:05:29;;;;;;;34.00;20.75;;;29.50;25.30;;;;;;5064014;28;20029;-61
2021/03/02 11:07:55;;;;;;;29.20;19.33;;;29.70;25.40;;;;;;5075114;28;20538;-63
2021/03/02 11:10:21;;;;;;;28.60;19.88;;;29.90;25.00;;;;;;5074108;28;20048;-62
2021/03/02 11:12:46;;;;;;;29.08;19.63;;;30.00;24.70;;;;;;5083146;28;20450;-63
2021/03/02 11:15:12;;;;;;;30.15;19.65;;;30.10;24.90;;;;;;5075508;28;20035;-60
2021/03/02 11:17:41;;;;;;;25.38;17.33;;;30.30;24.40;;;;;;5072828;28;20410;-60
2021/03/02 11:20:07;;;;;;;25.58;16.98;;;30.60;24.50;;;;;;5074706;28;20832;-61
2021/03/02 11:22:35;;;;;;;27.27;16.90;;;30.70;23.90;;;;;;5064095;28;20727;-60
2021/03/02 11:25:00;;;;;;;23.30;16.05;;;30.80;24.10;;;;;;5073288;28;20071;-61
2021/03/02 11:27:26;;;;;;;22.10;14.48;;;30.90;24.50;;;;;;5080569;28;20064;-62
2021/03/02 11:29:51;;;;;;;20.92;13.80;;;31.10;24.00;;;;;;5072181;28;20051;-62
2021/03/02 11:32:17;;;;;;;19.80;13.30;;;31.20;23.60;;;;;;5075344;28;20089;-62
2021/03/02 11:34:43;;;;;;;17.92;13.02;;;31.20;23.60;;;;;;5072548;28;20082;-60
2021/03/02 11:37:09;;;;;;;20.83;12.73;;;31.00;24.00;;;;;;5074522;28;20349;-61
2021/03/02 11:39:34;;;;;;;19.60;13.07;;;30.70;23.70;;;;;;5058228;28;20127;-60
2021/03/02 11:41:59;;;;;;;19.48;12.93;;;30.40;23.90;;;;;;5078399;28;20043;-61
2021/03/02 11:44:26;;;;;;;18.45;12.57;;;30.20;24.00;;;;;;5075550;28;20063;-61
2021/03/02 11:46:52;;;;;;;18.10;12.63;;;30.20;24.30;;;;;;5073960;28;20487;-61
2021/03/02 11:49:17;;;;;;;18.20;11.73;;;30.30;24.10;;;;;;5073825;28;20327;-61
2021/03/02 11:51:43;;;;;;;18.83;13.15;;;30.30;24.00;;;;;;5078127;28;20040;-62
2021/03/02 11:54:08;;;;;;;18.58;12.32;;;30.40;24.10;;;;;;5079241;28;20036;-62
2021/03/02 11:56:34;;;;;;;19.73;12.57;;;30.40;23.60;;;;;;5067927;28;20032;-62
2021/03/02 11:58:59;;;;;;;18.40;12.95;;;30.20;23.70;;;;;;5065144;28;20040;-62
2021/03/02 12:01:25;;;;;;;19.58;13.75;;;30.20;23.80;;;;;;5069305;28;20505;-61
2021/03/02 12:03:50;;;;;;;17.35;12.25;;;30.10;24.00;;;;;;5066566;28;20148;-61
2021/03/02 12:06:16;;;;;;;20.77;13.32;;;30.20;24.30;;;;;;5045347;28;20037;-62
2021/03/02 12:08:41;;;;;;;21.48;13.00;;;30.10;24.40;;;;;;5067313;28;20546;-62
2021/03/02 12:11:07;;;;;;;22.63;14.10;;;30.00;24.30;;;;;;5080178;28;20179;-61
2021/03/02 12:13:32;;;;;;;21.52;13.80;;;29.90;24.00;;;;;;5075437;28;20075;-61
2021/03/02 12:15:58;;;;;;;19.80;13.88;;;29.70;24.10;;;;;;5072786;28;20036;-61
2021/03/02 12:18:24;;;;;;;20.30;13.82;;;29.40;24.50;;;;;;5073812;28;20040;-62
2021/03/02 12:20:49;;;;;;;21.73;13.98;;;29.40;24.30;;;;;;5076659;28;20043;-61
2021/03/02 12:23:15;;;;;;;22.65;13.63;;;29.20;24.40;;;;;;5063802;28;20044;-62
2021/03/02 12:25:41;;;;;;;21.30;14.50;;;29.00;24.70;;;;;;5067386;28;20078;-61
2021/03/02 12:28:06;;;;;;;20.98;14.38;;;28.90;24.90;;;;;;5070289;28;20032;-61
2021/03/02 12:30:35;;;;;;;23.48;14.55;;;28.80;24.90;;;;;;5068524;28;20525;-61
2021/03/02 12:33:00;;;;;;;24.08;14.13;;;28.60;24.90;;;;;;5068665;28;21619;-61
2021/03/02 12:35:27;;;;;;;24.02;15.10;;;28.40;24.80;;;;;;5059013;28;20155;-61
2021/03/02 12:37:55;;;;;;;18.90;13.75;;;28.00;25.30;;;;;;5054942;28;20506;-62
2021/03/02 12:40:20;;;;;;;21.92;14.95;;;27.60;25.60;;;;;;5068817;28;20066;-60
2021/03/02 12:42:46;;;;;;;19.98;13.77;;;27.40;25.80;;;;;;5074982;28;20795;-62
2021/03/02 12:45:14;;;;;;;22.17;13.57;;;27.30;25.80;;;;;;5068916;28;20046;-62
2021/03/02 12:47:42;;;;;;;19.60;12.40;;;27.10;26.20;;;;;;5074517;28;20039;-63
2021/03/02 12:50:09;;;;;;;18.38;12.73;;;26.70;26.60;;;;;;5075177;28;20617;-62
2021/03/02 12:52:36;;;;;;;20.05;12.65;;;26.20;26.60;;;;;;5074587;28;20127;-62
2021/03/02 12:55:02;;;;;;;22.85;13.52;;;25.60;26.90;;;;;;5078308;28;20487;-61
2021/03/02 12:57:28;;;;;;;21.25;13.95;;;24.80;27.20;;;;;;5073755;28;20076;-61
2021/03/02 12:59:54;;;;;;;21.23;13.75;;;;;;;;;;5073772;28;20490;-61
2021/03/02 13:02:20;;;;;;;21.77;14.07;;;;;;;;;;5081328;28;20490;-62
2021/03/02 13:04:47;;;;;;;25.13;14.40;;;;;;;;;;5076711;28;20036;-61
2021/03/02 13:07:16;;;;;;;27.45;14.38;;;;;;;;;;5070367;28;20345;-61
2021/03/02 13:09:42;;;;;;;24.10;14.18;;;;;;;;;;5060863;28;20028;-62
2021/03/02 13:12:08;;;;;;;26.17;13.45;;;;;;;;;;5066104;28;20486;-62
2021/03/02 13:14:35;;;;;;;24.13;13.88;;;;;;;;;;5068610;28;20067;-62
2021/03/02 13:17:03;;;;;;;20.92;12.73;;;;;;;;;;5056706;28;20028;-62
2021/03/02 13:19:30;;;;;;;23.55;14.02;;;;;;;;;;5074529;28;20032;-62
2021/03/02 13:21:56;;;;;;;23.27;13.15;;;;;;;;;;5074402;28;20043;-62
2021/03/02 13:24:21;;;;;;;25.23;13.38;;;;;;;;;;5074082;28;20068;-62
2021/03/02 13:26:51;;;;;;;25.70;13.50;;;;;;;;;;5072641;28;20040;-62
2021/03/02 13:29:17;;;;;;;24.35;13.63;;;;;;;;;;5074903;28;20043;-60
2021/03/02 13:31:46;;;;;;;26.00;15.45;;;;;;;;;;5072155;28;20063;-60
2021/03/02 13:34:12;;;;;;;23.92;12.73;;;;;;;;;;5063201;28;20551;-60
2021/03/02 13:36:40;;;;;;;25.75;13.52;;;;;;;;;;5069397;28;20036;-60
2021/03/02 13:39:06;;;;;;;21.63;12.18;;;;;;;;;;5072808;28;20028;-60
2021/03/02 13:41:34;;;;;;;21.38;12.20;;;;;;;;;;5044045;28;20599;-60
2021/03/02 13:44:01;;;;;;;22.27;12.45;;;;;;;;;;5071449;28;20032;-60
2021/03/02 13:46:32;;;;;;;23.10;12.25;;;;;;;;;;5064240;28;20414;-61
2021/03/02 13:48:58;;;;;;;25.73;12.30;;;;;;;;;;5077414;28;20042;-60
2021/03/02 13:51:24;;;;;;;25.42;12.45;;;;;;;;;;5074064;28;20068;-60
2021/03/02 13:53:50;;;;;;;24.15;12.15;;;;;;;;;;5051245;28;20040;-61
2021/03/02 13:56:16;;;;;;;22.95;12.05;;;;;;;;;;5075259;28;20028;-60
2021/03/02 13:58:42;;;;;;;20.85;12.02;;;;;;;;;;5074617;28;20544;-60
2021/03/02 14:01:08;;;;;;;23.92;11.23;;;;;;;;;;5067798;28;20554;-61
2021/03/02 14:03:36;;;;;;;20.10;10.10;;;;;;;;;;5077918;28;20050;-60
2021/03/02 14:06:08;;;;;;;22.30;10.43;;;;;;;;;;5074822;28;20097;-60
2021/03/02 14:08:34;;;;;;;14.20;9.30;;;;;;;;;;5075084;28;20123;-60
2021/03/02 14:11:00;;;;;;;15.73;9.23;;;;;;;;;;5080455;28;20767;-60
2021/03/02 14:13:31;;;;;;;14.75;8.20;;;;;;;;;;5072903;28;21230;-60
2021/03/02 14:16:04;;;;;;;15.70;7.93;;;;;;;;;;5069223;28;20031;-61
2021/03/02 14:18:30;;;;;;;13.52;8.05;;;;;;;;;;5075161;28;20403;-60
2021/03/02 14:20:58;;;;;;;14.40;8.68;;;;;;;;;;5073886;28;20044;-60
2021/03/02 14:23:24;;;;;;;12.18;8.05;;;;;;;;;;5074665;28;20039;-60
2021/03/02 14:25:53;;;;;;;13.75;8.07;;;;;;;;;;5073609;28;20044;-60
2021/03/02 14:28:19;;;;;;;17.67;10.10;;;;;;;;;;5079366;28;20575;-60
2021/03/02 14:30:48;;;;;;;18.25;9.10;;;;;;;;;;5072674;28;20380;-60
2021/03/02 14:33:14;;;;;;;12.73;7.75;;;;;;;;;;5074224;28;20028;-60